Terminal Aerodrome Forecast
Issued by NWS

Home | Current Version | Previous Version | Text Only | Print | Product List | Glossary On
Versions: 1 2 3 4 5 6 7 8 9 10 11 12
548
FTPA31 PHFO 121120
TAFHTO
TAF
PHTO 121120Z 1212/1312 23005KT P6SM FEW025 SCT040
     FM122000 09010KT P6SM VCSH SCT025 BKN040
     FM130600 23005KT P6SM VCSH SCT025 BKN040=

USA.gov is the U.S. government's official web portal to all federal, state and local government web resources and services.